OUD weather

Public forecast

Using degrees Celsius for public forecast. Weather courtesy of forecast.io.

Current aviation weather report (METAR) for Angads Airport

Retrieved 2020/08/12 00:00 UTC (13 minutes ago):

GMFO 120000Z 33011KT 9999 FEW026 SCT140 23/21 Q1015 NOSIG

Aviation forecast (TAF) for Angads Airport

Retrieved 2020-08-12 00:24 UTC (0 seconds ago):

TAF GMFO 112300Z 1200/1306 26006KT 9999 FEW030 SCT200 TEMPO 1212/1218 34016KT